Time;durP1;ratioP1;P1;durP2;ratioP2;P2;SDS_P1;SDS_P2;PMS_P1;PMS_P2;Temp;Humidity;BMP_temperature;BMP_pressure;BME280_temperature;BME280_humidity;BME280_pressure;Samples;Min_cycle;Max_cycle;Signal;HPM_P1;HPM_P2
2021/09/25 00:00:56;;;;;;;14.32;8.27;;;17.20;91.50;;;;;;5017214;28;20112;-81
2021/09/25 00:03:22;;;;;;;10.50;6.50;;;17.20;91.40;;;;;;5017705;28;20026;-78
2021/09/25 00:05:47;;;;;;;11.63;6.78;;;17.20;91.30;;;;;;5017401;28;20454;-79
2021/09/25 00:08:13;;;;;;;9.88;6.32;;;17.20;91.30;;;;;;5017318;28;20030;-82
2021/09/25 00:10:40;;;;;;;11.35;6.43;;;17.20;91.30;;;;;;5016789;28;20052;-79
2021/09/25 00:13:06;;;;;;;16.60;6.75;;;17.20;91.20;;;;;;5017581;28;20022;-78
2021/09/25 00:15:32;;;;;;;13.73;6.65;;;17.20;91.10;;;;;;5016237;28;20022;-78
2021/09/25 00:17:59;;;;;;;10.68;6.40;;;17.20;91.00;;;;;;5016987;28;20014;-79
2021/09/25 00:20:25;;;;;;;8.48;5.80;;;17.20;91.00;;;;;;5016602;28;20030;-79
2021/09/25 00:22:51;;;;;;;8.98;6.15;;;17.20;91.00;;;;;;5016773;28;20025;-78
2021/09/25 00:25:16;;;;;;;9.80;5.50;;;17.20;90.90;;;;;;5016543;28;20521;-78
2021/09/25 00:27:43;;;;;;;12.85;6.10;;;17.20;90.90;;;;;;5023197;28;20076;-80
2021/09/25 00:30:10;;;;;;;12.10;6.18;;;17.20;90.80;;;;;;5022024;28;20018;-79
2021/09/25 00:32:37;;;;;;;11.23;6.63;;;17.20;90.80;;;;;;5016604;28;20033;-79
2021/09/25 00:35:03;;;;;;;11.32;5.47;;;17.20;90.60;;;;;;5019966;28;20030;-78
2021/09/25 00:37:29;;;;;;;9.57;6.03;;;17.20;90.60;;;;;;5016906;28;20022;-79
2021/09/25 00:39:55;;;;;;;10.90;5.18;;;17.20;90.50;;;;;;5016518;28;20081;-79
2021/09/25 00:42:20;;;;;;;8.40;4.68;;;17.20;90.50;;;;;;5015454;28;20010;-79
2021/09/25 00:44:46;;;;;;;9.52;4.50;;;17.20;90.40;;;;;;5016116;28;20099;-79
2021/09/25 00:47:12;;;;;;;10.75;5.65;;;17.20;90.00;;;;;;5017720;28;20034;-79
2021/09/25 00:49:38;;;;;;;11.05;5.38;;;17.20;90.30;;;;;;5015528;28;20030;-78
2021/09/25 00:52:04;;;;;;;9.95;5.13;;;17.20;90.30;;;;;;5016791;28;20467;-79
2021/09/25 00:54:30;;;;;;;8.88;5.10;;;17.20;90.20;;;;;;5015739;28;20018;-78
2021/09/25 00:56:56;;;;;;;10.10;4.88;;;17.20;90.20;;;;;;5016211;28;20088;-79
2021/09/25 00:59:22;;;;;;;8.48;4.82;;;17.20;90.10;;;;;;5015581;28;20471;-78
2021/09/25 01:01:48;;;;;;;8.82;5.60;;;17.20;90.10;;;;;;5016966;28;20022;-80
2021/09/25 01:04:14;;;;;;;7.35;4.82;;;17.20;90.20;;;;;;5018844;28;20053;-77
2021/09/25 01:06:39;;;;;;;11.50;5.45;;;17.20;90.10;;;;;;5033360;28;20028;-79
2021/09/25 01:09:06;;;;;;;9.40;5.15;;;17.20;90.10;;;;;;5034265;28;20082;-79
2021/09/25 01:11:33;;;;;;;14.30;5.80;;;17.20;90.10;;;;;;5036578;28;20006;-78
2021/09/25 01:13:59;;;;;;;12.27;5.00;;;17.20;90.10;;;;;;5034829;28;20022;-79
2021/09/25 01:16:24;;;;;;;11.02;5.15;;;17.20;90.00;;;;;;5039807;28;20021;-78
2021/09/25 01:18:52;;;;;;;10.13;5.65;;;17.20;90.00;;;;;;5028853;28;20048;-79
2021/09/25 01:21:18;;;;;;;10.63;5.20;;;17.20;90.00;;;;;;5016151;28;20490;-79
2021/09/25 01:23:45;;;;;;;8.43;4.97;;;17.10;90.00;;;;;;5016006;28;20076;-78
2021/09/25 01:26:11;;;;;;;9.82;5.10;;;17.10;90.00;;;;;;5016893;28;20390;-79
2021/09/25 01:28:39;;;;;;;10.90;4.97;;;17.10;90.00;;;;;;5016031;28;20446;-80
2021/09/25 01:31:07;;;;;;;8.40;4.28;;;17.00;90.00;;;;;;5015146;28;20026;-78
2021/09/25 01:33:45;;;;;;;10.25;5.57;;;17.10;90.00;;;;;;5016458;28;20465;-78
2021/09/25 01:36:12;;;;;;;8.45;4.90;;;17.10;90.10;;;;;;5015697;28;20068;-78
2021/09/25 01:38:39;;;;;;;7.60;4.80;;;17.10;90.10;;;;;;5016928;28;20109;-77
2021/09/25 01:41:05;;;;;;;12.50;6.85;;;17.10;90.10;;;;;;5015513;28;20642;-79
2021/09/25 01:43:31;;;;;;;12.10;6.72;;;17.00;90.10;;;;;;5023733;28;20351;-78
2021/09/25 01:45:57;;;;;;;13.50;6.30;;;17.00;90.10;;;;;;5030076;28;20139;-79
2021/09/25 01:48:23;;;;;;;13.23;6.30;;;17.10;90.20;;;;;;5017905;28;20038;-79
2021/09/25 01:50:50;;;;;;;12.07;5.97;;;17.00;90.20;;;;;;5015464;28;20520;-78
2021/09/25 01:53:17;;;;;;;12.75;6.70;;;17.00;90.30;;;;;;5015714;28;20018;-79
2021/09/25 01:55:43;;;;;;;11.80;6.65;;;17.00;90.40;;;;;;5014016;28;20371;-78
2021/09/25 01:58:09;;;;;;;11.18;7.32;;;17.00;90.40;;;;;;5015327;28;20083;-80
2021/09/25 02:00:35;;;;;;;9.95;6.97;;;17.00;90.60;;;;;;5014656;28;20072;-79
2021/09/25 02:03:04;;;;;;;11.52;7.63;;;17.00;90.60;;;;;;5015242;28;20497;-79
2021/09/25 02:05:30;;;;;;;11.02;7.28;;;17.00;90.70;;;;;;5016269;28;20030;-79
2021/09/25 02:07:55;;;;;;;11.70;7.90;;;17.00;90.60;;;;;;5017078;28;20037;-80
2021/09/25 02:10:21;;;;;;;15.23;9.15;;;17.00;90.80;;;;;;5017296;28;20072;-78
2021/09/25 02:12:49;;;;;;;12.93;8.15;;;16.90;90.80;;;;;;5018277;28;20033;-77
2021/09/25 02:15:15;;;;;;;15.57;9.10;;;17.00;90.80;;;;;;5018182;28;20450;-78
2021/09/25 02:17:41;;;;;;;12.13;7.78;;;17.00;90.90;;;;;;5016996;28;20036;-79
2021/09/25 02:20:08;;;;;;;14.38;9.40;;;16.90;90.80;;;;;;5014496;28;20026;-79
2021/09/25 02:22:35;;;;;;;14.63;9.23;;;16.90;90.90;;;;;;5015653;28;20075;-79
2021/09/25 02:25:01;;;;;;;14.60;9.00;;;16.90;90.90;;;;;;5021504;28;20026;-79
2021/09/25 02:27:26;;;;;;;16.38;9.63;;;16.90;91.00;;;;;;5015327;28;20038;-79
2021/09/25 02:29:52;;;;;;;12.98;8.40;;;16.90;91.10;;;;;;5013978;28;20450;-80
2021/09/25 02:32:17;;;;;;;15.77;10.25;;;16.90;90.90;;;;;;5014606;28;20022;-79
2021/09/25 02:34:43;;;;;;;13.35;8.73;;;16.90;91.10;;;;;;5015652;28;20532;-79
2021/09/25 02:37:08;;;;;;;18.17;11.05;;;16.80;91.10;;;;;;5013795;28;20056;-79
2021/09/25 02:39:35;;;;;;;14.32;9.02;;;16.80;91.20;;;;;;5014242;28;20030;-79
2021/09/25 02:42:04;;;;;;;16.30;9.63;;;16.80;91.30;;;;;;5015022;28;20060;-78
2021/09/25 02:44:33;;;;;;;16.92;10.10;;;16.80;91.20;;;;;;5013572;28;20025;-79
2021/09/25 02:46:59;;;;;;;14.73;8.40;;;16.80;91.20;;;;;;5014691;28;20521;-79
2021/09/25 02:49:24;;;;;;;15.35;9.65;;;16.80;91.20;;;;;;5015200;28;20034;-79
2021/09/25 02:51:51;;;;;;;15.30;10.25;;;16.80;91.30;;;;;;5013665;28;20022;-79
2021/09/25 02:54:17;;;;;;;16.25;8.88;;;16.70;91.40;;;;;;5015177;28;20033;-79
2021/09/25 02:56:42;;;;;;;16.40;10.30;;;16.70;91.40;;;;;;5013525;28;20026;-79
2021/09/25 02:59:08;;;;;;;16.88;10.52;;;16.70;91.70;;;;;;5013331;28;20052;-79
2021/09/25 03:01:34;;;;;;;16.98;10.13;;;16.70;91.40;;;;;;5019468;28;20030;-79
2021/09/25 03:03:59;;;;;;;16.50;9.80;;;16.70;91.50;;;;;;5017017;28;20083;-80
2021/09/25 03:06:26;;;;;;;14.07;8.45;;;16.70;91.50;;;;;;5035896;28;20085;-79
2021/09/25 03:08:52;;;;;;;14.98;9.98;;;16.70;91.40;;;;;;5033809;28;20038;-79
2021/09/25 03:11:18;;;;;;;15.40;8.73;;;16.60;91.50;;;;;;5023440;28;20025;-80
2021/09/25 03:13:44;;;;;;;17.23;9.77;;;16.60;91.40;;;;;;5015878;28;20370;-80
2021/09/25 03:16:10;;;;;;;16.58;10.32;;;16.60;91.50;;;;;;5014182;28;20022;-79
2021/09/25 03:18:36;;;;;;;21.48;10.65;;;16.60;91.60;;;;;;5013638;28;20041;-79
2021/09/25 03:21:01;;;;;;;19.02;11.73;;;16.60;91.60;;;;;;5014678;28;20025;-80
2021/09/25 03:23:27;;;;;;;17.30;9.48;;;16.60;91.60;;;;;;5013026;28;20061;-79
2021/09/25 03:25:53;;;;;;;16.77;10.52;;;16.50;91.60;;;;;;5013546;28;20033;-79
2021/09/25 03:28:18;;;;;;;14.60;10.48;;;16.60;91.60;;;;;;5013622;28;20026;-79
2021/09/25 03:30:44;;;;;;;18.08;11.70;;;16.50;91.60;;;;;;5012461;28;20030;-78
2021/09/25 03:33:10;;;;;;;18.30;11.25;;;16.50;91.80;;;;;;5013099;28;20026;-80
2021/09/25 03:35:36;;;;;;;17.20;10.88;;;16.50;91.70;;;;;;5014613;28;20025;-78
2021/09/25 03:38:02;;;;;;;20.67;11.90;;;16.50;91.80;;;;;;5026276;28;20359;-79
2021/09/25 03:40:28;;;;;;;18.50;11.25;;;16.50;91.80;;;;;;5015210;28;20455;-79
2021/09/25 03:42:54;;;;;;;18.38;11.15;;;16.50;91.80;;;;;;5013723;28;20385;-79
2021/09/25 03:45:19;;;;;;;17.60;11.55;;;16.50;91.80;;;;;;5016299;28;20093;-79
2021/09/25 03:47:45;;;;;;;18.10;10.32;;;16.50;91.90;;;;;;5024018;28;20026;-78
2021/09/25 03:50:12;;;;;;;20.05;11.68;;;16.50;91.90;;;;;;5024370;28;20030;-79
2021/09/25 03:52:37;;;;;;;16.73;10.27;;;16.50;91.90;;;;;;5013276;28;20026;-78
2021/09/25 03:55:05;;;;;;;20.15;12.07;;;16.50;91.70;;;;;;5013706;28;20080;-78
2021/09/25 03:57:30;;;;;;;17.70;11.63;;;16.50;91.80;;;;;;5014690;28;20033;-79
2021/09/25 03:59:56;;;;;;;18.88;11.57;;;16.50;92.10;;;;;;5015725;28;20022;-79
2021/09/25 04:02:21;;;;;;;21.33;11.88;;;16.50;91.80;;;;;;5021977;28;20083;-77
2021/09/25 04:04:47;;;;;;;21.25;12.35;;;16.50;91.80;;;;;;5023856;28;20545;-79
2021/09/25 04:07:13;;;;;;;19.55;12.10;;;16.50;91.80;;;;;;5013113;28;20053;-78
2021/09/25 04:09:38;;;;;;;19.90;12.48;;;16.40;91.90;;;;;;5013792;28;20057;-78
2021/09/25 04:12:04;;;;;;;18.90;12.02;;;16.40;91.90;;;;;;5014107;28;20105;-79
2021/09/25 04:14:30;;;;;;;19.73;12.25;;;16.40;91.90;;;;;;5024239;28;20026;-77
2021/09/25 04:16:56;;;;;;;19.38;12.25;;;16.50;92.00;;;;;;5011965;28;20022;-79
2021/09/25 04:19:22;;;;;;;19.83;11.82;;;16.40;91.90;;;;;;5013486;28;20034;-79
2021/09/25 04:21:48;;;;;;;17.90;11.82;;;16.40;91.90;;;;;;5012690;28;20025;-78
2021/09/25 04:24:14;;;;;;;19.42;11.77;;;16.40;91.90;;;;;;5013265;28;20029;-78
2021/09/25 04:26:40;;;;;;;18.42;12.00;;;16.40;91.90;;;;;;5012296;28;20074;-77
2021/09/25 04:29:06;;;;;;;18.90;11.80;;;16.40;91.90;;;;;;5011846;28;20034;-78
2021/09/25 04:31:34;;;;;;;18.40;11.50;;;16.40;91.90;;;;;;5012284;28;20029;-78
2021/09/25 04:34:01;;;;;;;19.48;13.20;;;16.40;91.90;;;;;;5012976;28;20053;-78
2021/09/25 04:36:27;;;;;;;20.05;11.23;;;16.40;92.00;;;;;;5012084;28;20022;-78
2021/09/25 04:38:52;;;;;;;22.05;12.32;;;16.50;91.90;;;;;;5012023;28;20599;-80
2021/09/25 04:41:18;;;;;;;24.73;14.38;;;16.40;91.90;;;;;;5014934;28;20030;-79
2021/09/25 04:43:44;;;;;;;23.15;14.05;;;16.40;91.90;;;;;;5015698;28;20025;-79
2021/09/25 04:46:09;;;;;;;24.65;13.07;;;16.40;91.90;;;;;;5015793;28;20025;-79
2021/09/25 04:48:35;;;;;;;24.80;13.25;;;16.50;92.00;;;;;;5015841;28;20034;-79
2021/09/25 04:51:02;;;;;;;20.35;13.57;;;16.40;91.90;;;;;;5028984;28;20422;-80
2021/09/25 04:53:30;;;;;;;22.40;12.90;;;16.40;91.90;;;;;;5017338;28;20029;-78
2021/09/25 04:55:57;;;;;;;21.30;13.57;;;16.40;92.00;;;;;;5017872;28;20029;-78
2021/09/25 04:58:28;;;;;;;22.40;13.98;;;16.40;92.20;;;;;;5031787;28;20026;-78
2021/09/25 05:00:55;;;;;;;21.42;13.05;;;16.40;91.90;;;;;;5036024;28;20037;-79
2021/09/25 05:03:21;;;;;;;23.55;12.50;;;16.40;92.00;;;;;;5037019;28;20046;-79
2021/09/25 05:05:47;;;;;;;21.98;12.75;;;16.30;92.00;;;;;;5028001;28;20553;-77
2021/09/25 05:08:12;;;;;;;23.13;12.68;;;16.30;92.10;;;;;;5019083;28;20037;-79
2021/09/25 05:10:38;;;;;;;17.40;11.40;;;16.30;92.10;;;;;;5017644;28;20379;-78
2021/09/25 05:13:04;;;;;;;22.30;12.43;;;16.30;92.00;;;;;;5015696;28;20037;-78
2021/09/25 05:15:29;;;;;;;15.10;10.00;;;16.30;92.00;;;;;;5015871;28;20026;-80
2021/09/25 05:17:55;;;;;;;21.30;13.23;;;16.30;91.90;;;;;;5015355;28;20025;-79
2021/09/25 05:20:21;;;;;;;20.23;12.85;;;16.40;92.00;;;;;;5015977;28;20089;-78
2021/09/25 05:22:46;;;;;;;24.33;13.45;;;16.30;91.90;;;;;;5018366;28;20064;-79
2021/09/25 05:25:12;;;;;;;19.58;12.25;;;16.30;92.10;;;;;;5017471;28;20533;-78
2021/09/25 05:27:38;;;;;;;23.20;13.07;;;16.30;92.00;;;;;;5027098;28;20030;-79
2021/09/25 05:30:05;;;;;;;20.98;13.60;;;16.30;92.00;;;;;;5014767;28;20075;-79
2021/09/25 05:32:30;;;;;;;21.25;13.20;;;16.30;92.00;;;;;;5014815;28;20455;-78
2021/09/25 05:34:56;;;;;;;24.70;13.65;;;16.30;92.00;;;;;;5014874;28;20033;-77
2021/09/25 05:37:22;;;;;;;20.58;12.32;;;16.30;92.00;;;;;;5014686;28;20022;-78
2021/09/25 05:39:47;;;;;;;20.52;12.98;;;16.30;92.00;;;;;;5014923;28;20029;-79
2021/09/25 05:42:14;;;;;;;22.08;11.57;;;16.30;92.00;;;;;;5016117;28;20121;-79
2021/09/25 05:44:45;;;;;;;23.20;13.32;;;16.30;92.00;;;;;;5014414;28;20025;-80
2021/09/25 05:47:12;;;;;;;18.27;12.35;;;16.30;92.00;;;;;;5014337;28;20032;-80
2021/09/25 05:49:37;;;;;;;21.17;12.77;;;16.30;92.10;;;;;;5016934;28;20045;-78
2021/09/25 05:52:08;;;;;;;24.75;13.48;;;16.30;92.10;;;;;;5018767;28;20467;-78
2021/09/25 05:54:34;;;;;;;23.25;12.43;;;16.30;92.10;;;;;;5020213;28;20033;-79
2021/09/25 05:57:00;;;;;;;16.52;9.65;;;16.30;92.00;;;;;;5015052;28;20022;-79
2021/09/25 05:59:25;;;;;;;18.33;12.68;;;16.30;92.00;;;;;;5014691;28;20056;-79
2021/09/25 06:01:51;;;;;;;16.73;10.70;;;16.40;92.00;;;;;;5018011;28;20510;-78
2021/09/25 06:04:16;;;;;;;20.27;12.68;;;16.40;92.00;;;;;;5024950;28;20026;-78
2021/09/25 06:06:42;;;;;;;17.95;12.52;;;16.40;91.90;;;;;;5016820;28;20032;-78
2021/09/25 06:09:08;;;;;;;21.92;11.90;;;16.40;91.90;;;;;;5014645;28;20092;-79
2021/09/25 06:11:33;;;;;;;18.27;11.02;;;16.40;91.90;;;;;;5015185;28;20021;-78
2021/09/25 06:13:59;;;;;;;24.67;12.30;;;16.40;91.90;;;;;;5015262;28;20026;-78
2021/09/25 06:16:24;;;;;;;17.63;11.75;;;16.40;91.90;;;;;;5014525;28;20072;-79
2021/09/25 06:18:50;;;;;;;15.30;10.50;;;16.40;91.90;;;;;;5014843;28;20030;-78
2021/09/25 06:21:16;;;;;;;20.08;12.18;;;16.40;91.90;;;;;;5016142;28;20092;-78
2021/09/25 06:23:41;;;;;;;19.95;12.70;;;16.40;91.90;;;;;;5014827;28;20050;-79
2021/09/25 06:26:08;;;;;;;17.15;11.05;;;16.50;91.80;;;;;;5014372;28;20553;-79
2021/09/25 06:28:34;;;;;;;15.73;11.07;;;16.50;91.80;;;;;;5013903;28;20041;-79
2021/09/25 06:31:02;;;;;;;18.75;10.73;;;16.50;91.80;;;;;;5015329;28;20026;-78
2021/09/25 06:33:28;;;;;;;16.45;11.00;;;16.50;91.50;;;;;;5014333;28;20052;-79
2021/09/25 06:35:53;;;;;;;17.80;10.43;;;16.50;91.70;;;;;;5014176;28;20087;-78
2021/09/25 06:38:20;;;;;;;18.90;12.50;;;16.50;91.80;;;;;;5014870;28;20455;-80
2021/09/25 06:40:49;;;;;;;18.35;11.35;;;16.60;91.70;;;;;;5025755;28;20054;-79
2021/09/25 06:43:15;;;;;;;17.75;10.55;;;16.60;91.60;;;;;;5014097;28;20479;-77
2021/09/25 06:45:40;;;;;;;14.15;9.60;;;16.60;91.60;;;;;;5014898;28;20030;-80
2021/09/25 06:48:07;;;;;;;17.30;10.73;;;16.60;91.90;;;;;;5014534;28;20030;-79
2021/09/25 06:50:33;;;;;;;18.35;10.75;;;16.70;91.40;;;;;;5021689;28;20033;-78
2021/09/25 06:52:59;;;;;;;17.67;11.10;;;16.60;91.50;;;;;;5034934;28;20018;-78
2021/09/25 06:55:25;;;;;;;15.07;10.65;;;16.70;91.50;;;;;;5030381;28;20025;-79
2021/09/25 06:57:51;;;;;;;19.73;12.52;;;16.70;91.40;;;;;;5028107;28;20026;-79
2021/09/25 07:00:17;;;;;;;14.15;8.70;;;16.70;91.30;;;;;;5022945;28;20069;-79
2021/09/25 07:02:43;;;;;;;19.00;11.15;;;16.70;91.20;;;;;;5020321;28;20075;-78
2021/09/25 07:05:09;;;;;;;15.52;10.57;;;16.80;91.30;;;;;;5013074;28;20498;-79
2021/09/25 07:07:35;;;;;;;18.48;10.77;;;16.80;91.30;;;;;;5013373;28;20140;-80
2021/09/25 07:10:03;;;;;;;16.08;11.05;;;16.80;91.20;;;;;;5013193;28;20154;-79
2021/09/25 07:12:29;;;;;;;18.42;11.27;;;16.80;91.30;;;;;;5013114;28;20373;-79
2021/09/25 07:14:56;;;;;;;17.48;10.65;;;16.80;91.30;;;;;;5016196;28;20094;-78
2021/09/25 07:17:26;;;;;;;18.75;11.30;;;16.90;91.20;;;;;;5023704;28;20112;-79
2021/09/25 07:19:52;;;;;;;16.40;11.07;;;16.90;91.10;;;;;;5014006;28;20113;-79
2021/09/25 07:22:21;;;;;;;19.52;12.05;;;17.00;91.10;;;;;;5013030;28;20471;-79
2021/09/25 07:24:46;;;;;;;14.20;8.90;;;17.00;90.90;;;;;;5012978;28;20582;-79
2021/09/25 07:27:15;;;;;;;18.33;10.38;;;17.00;91.00;;;;;;5014448;28;20069;-80
2021/09/25 07:29:41;;;;;;;18.67;12.23;;;17.00;90.90;;;;;;5013643;28;20093;-80
2021/09/25 07:32:06;;;;;;;17.58;10.20;;;17.00;91.00;;;;;;5012660;28;20474;-79
2021/09/25 07:34:32;;;;;;;17.13;11.63;;;17.00;91.30;;;;;;5013624;28;20084;-78
2021/09/25 07:36:58;;;;;;;21.25;12.57;;;17.00;91.00;;;;;;5015914;28;20048;-79
2021/09/25 07:39:23;;;;;;;20.38;11.05;;;17.00;90.90;;;;;;5020246;28;20025;-79
2021/09/25 07:41:49;;;;;;;16.00;10.35;;;17.10;90.80;;;;;;5019790;28;20073;-79
2021/09/25 07:44:14;;;;;;;19.27;10.93;;;17.10;90.50;;;;;;5018742;28;20475;-79
2021/09/25 07:46:41;;;;;;;24.88;14.48;;;17.10;90.40;;;;;;5015873;28;20045;-80
2021/09/25 07:49:07;;;;;;;19.23;11.63;;;17.10;90.80;;;;;;5014155;28;20033;-79
2021/09/25 07:51:33;;;;;;;18.05;12.77;;;17.10;90.90;;;;;;5016555;28;20052;-78
2021/09/25 07:53:58;;;;;;;17.52;12.45;;;17.20;91.00;;;;;;5022480;28;20022;-79
2021/09/25 07:56:24;;;;;;;15.48;11.10;;;17.10;91.00;;;;;;5027104;28;20014;-78
2021/09/25 07:58:50;;;;;;;16.83;10.85;;;17.20;90.90;;;;;;5019693;28;20048;-79
2021/09/25 08:01:15;;;;;;;20.63;12.68;;;17.20;90.90;;;;;;5013616;28;20024;-78
2021/09/25 08:03:43;;;;;;;17.92;12.30;;;17.20;90.90;;;;;;5014111;28;20022;-78
2021/09/25 08:06:12;;;;;;;17.33;11.52;;;17.30;90.50;;;;;;5012331;28;20022;-79
2021/09/25 08:08:37;;;;;;;17.05;11.18;;;17.30;90.20;;;;;;5013753;28;20033;-79
2021/09/25 08:11:03;;;;;;;15.40;10.52;;;17.30;90.40;;;;;;5012601;28;20541;-78
2021/09/25 08:13:29;;;;;;;18.08;12.55;;;17.30;90.00;;;;;;5012094;28;20113;-79
2021/09/25 08:15:55;;;;;;;19.17;12.18;;;17.30;90.30;;;;;;5013797;28;20454;-78
2021/09/25 08:18:20;;;;;;;18.30;11.95;;;17.30;90.40;;;;;;5016253;28;20045;-78
2021/09/25 08:20:46;;;;;;;19.30;12.40;;;17.30;90.50;;;;;;5016604;28;20018;-80
2021/09/25 08:23:13;;;;;;;21.08;12.77;;;17.40;90.60;;;;;;5018676;28;20072;-80
2021/09/25 08:25:39;;;;;;;21.05;12.85;;;17.40;90.60;;;;;;5018422;28;20097;-79
2021/09/25 08:28:07;;;;;;;19.80;12.15;;;17.50;90.40;;;;;;5021959;28;20048;-79
2021/09/25 08:30:32;;;;;;;14.90;9.50;;;17.60;90.50;;;;;;5027967;28;20195;-79
2021/09/25 08:32:58;;;;;;;19.85;12.35;;;17.60;89.80;;;;;;5012722;28;20254;-79
2021/09/25 08:35:24;;;;;;;16.95;10.48;;;17.60;90.00;;;;;;5025168;28;20033;-79
2021/09/25 08:37:50;;;;;;;21.23;13.13;;;17.60;90.00;;;;;;5023854;28;20044;-79
2021/09/25 08:40:21;;;;;;;15.05;10.95;;;17.60;90.10;;;;;;5031429;28;20022;-81
2021/09/25 08:42:47;;;;;;;21.67;12.93;;;17.60;90.00;;;;;;5039800;28;20033;-79
2021/09/25 08:45:13;;;;;;;17.20;11.65;;;17.60;90.10;;;;;;5051890;28;20026;-79
2021/09/25 08:47:39;;;;;;;20.50;13.55;;;17.70;88.80;;;;;;5047691;28;20021;-79
2021/09/25 08:50:07;;;;;;;20.33;12.45;;;17.70;89.30;;;;;;5052910;28;20033;-79
2021/09/25 08:52:36;;;;;;;21.75;13.55;;;17.60;89.50;;;;;;5042951;28;20431;-79
2021/09/25 08:55:03;;;;;;;24.15;14.80;;;17.60;89.60;;;;;;5035548;28;20023;-78
2021/09/25 08:57:29;;;;;;;24.88;13.57;;;17.60;89.90;;;;;;5035620;28;20478;-79
2021/09/25 08:59:54;;;;;;;21.67;14.20;;;17.60;90.10;;;;;;5035780;28;20035;-79
2021/09/25 09:02:22;;;;;;;18.80;12.10;;;17.70;90.30;;;;;;5035757;28;20022;-79
2021/09/25 09:04:53;;;;;;;29.48;14.70;;;17.70;90.10;;;;;;5039362;28;20036;-77
2021/09/25 09:07:24;;;;;;;21.73;12.65;;;17.70;90.20;;;;;;5041173;28;20057;-79
2021/09/25 09:09:50;;;;;;;24.80;15.27;;;17.70;90.30;;;;;;5036123;28;20429;-78
2021/09/25 09:12:24;;;;;;;24.20;15.80;;;17.70;90.30;;;;;;5034713;28;20061;-78
2021/09/25 09:14:51;;;;;;;22.73;14.48;;;17.60;90.40;;;;;;5034623;28;20531;-79
2021/09/25 09:17:29;;;;;;;19.85;13.68;;;17.60;90.40;;;;;;5037081;28;20029;-78
2021/09/25 09:19:56;;;;;;;23.58;14.88;;;17.60;90.30;;;;;;5035479;28;20036;-79
2021/09/25 09:22:23;;;;;;;16.90;11.68;;;17.60;90.50;;;;;;5035982;28;20024;-78
2021/09/25 09:24:52;;;;;;;20.73;13.88;;;17.70;90.50;;;;;;5034668;28;20022;-77
2021/09/25 09:27:20;;;;;;;25.05;14.57;;;17.70;90.50;;;;;;5010226;28;20034;-79
2021/09/25 09:29:46;;;;;;;20.63;13.23;;;17.70;90.20;;;;;;5021814;28;20088;-79
2021/09/25 09:32:13;;;;;;;26.30;14.65;;;17.80;90.20;;;;;;5025389;28;20022;-79
2021/09/25 09:34:40;;;;;;;27.73;15.63;;;17.80;90.30;;;;;;5020672;28;20022;-80
2021/09/25 09:37:19;;;;;;;21.33;14.27;;;17.90;89.90;;;;;;5016974;28;20026;-79
2021/09/25 09:40:03;;;;;;;23.98;16.15;;;18.00;89.80;;;;;;5014760;28;20037;-80
2021/09/25 09:42:41;;;;;;;26.58;16.98;;;18.00;90.00;;;;;;5010672;28;20057;-81
2021/09/25 09:45:08;;;;;;;23.85;16.40;;;18.10;90.00;;;;;;5014028;28;20052;-80
2021/09/25 09:47:43;;;;;;;29.42;17.35;;;18.20;89.60;;;;;;5014406;28;20526;-80
2021/09/25 09:50:08;;;;;;;26.85;16.20;;;18.10;89.50;;;;;;5014620;28;20038;-79
2021/09/25 09:52:34;;;;;;;27.30;15.60;;;18.20;89.30;;;;;;5015032;28;20176;-80
2021/09/25 09:55:01;;;;;;;27.27;15.68;;;18.20;88.80;;;;;;5017169;28;20168;-80
2021/09/25 09:57:28;;;;;;;26.38;17.40;;;18.20;88.60;;;;;;5015294;28;20140;-81
2021/09/25 09:59:54;;;;;;;22.00;15.52;;;18.30;89.40;;;;;;5016770;28;20038;-80
2021/09/25 10:02:20;;;;;;;27.35;15.68;;;18.30;89.10;;;;;;5023782;28;20018;-78
2021/09/25 10:04:47;;;;;;;30.23;17.17;;;18.30;89.00;;;;;;5014242;28;20018;-80
2021/09/25 10:07:13;;;;;;;24.35;16.48;;;18.40;89.10;;;;;;5013775;28;20033;-81
2021/09/25 10:09:40;;;;;;;24.35;16.42;;;18.50;89.00;;;;;;5015648;28;20026;-80
2021/09/25 10:12:14;;;;;;;21.75;15.20;;;18.50;88.70;;;;;;5014349;28;20430;-80
2021/09/25 10:14:48;;;;;;;26.08;15.65;;;18.60;87.60;;;;;;5014121;28;20018;-80
2021/09/25 10:17:16;;;;;;;25.55;15.07;;;18.70;88.00;;;;;;5021220;28;20030;-80
2021/09/25 10:19:43;;;;;;;26.30;16.60;;;18.80;87.80;;;;;;5022628;28;20162;-79
2021/09/25 10:22:20;;;;;;;27.15;15.15;;;18.90;87.40;;;;;;5014460;28;20032;-80
2021/09/25 10:24:55;;;;;;;18.88;12.32;;;18.90;87.10;;;;;;5013022;28;20026;-80
2021/09/25 10:27:41;;;;;;;26.17;14.98;;;18.80;84.50;;;;;;5014590;28;20070;-80
2021/09/25 10:30:10;;;;;;;22.88;15.00;;;18.80;86.20;;;;;;5014139;28;20030;-79
2021/09/25 10:32:42;;;;;;;14.55;9.02;;;18.80;86.70;;;;;;5013812;28;20010;-81
2021/09/25 10:35:23;;;;;;;28.67;17.50;;;18.80;85.90;;;;;;5018278;28;20405;-80
2021/09/25 10:37:57;;;;;;;26.35;15.68;;;18.80;86.70;;;;;;5033831;28;20368;-79
2021/09/25 10:40:26;;;;;;;25.75;14.43;;;18.90;86.70;;;;;;5011166;28;20031;-79
2021/09/25 10:43:21;;;;;;;24.80;17.55;;;18.90;86.80;;;;;;5014780;28;20033;-80
2021/09/25 10:45:56;;;;;;;24.88;14.70;;;19.00;86.70;;;;;;5018407;28;20089;-78
2021/09/25 10:48:22;;;;;;;29.50;17.08;;;19.00;85.30;;;;;;5013620;28;20095;-80
2021/09/25 10:50:54;;;;;;;19.13;13.55;;;19.00;85.30;;;;;;5013781;28;20018;-80
2021/09/25 10:53:29;;;;;;;29.55;18.52;;;19.00;85.00;;;;;;5013767;28;20104;-80
2021/09/25 10:55:57;;;;;;;25.08;15.73;;;19.10;85.90;;;;;;5024655;28;20041;-80
2021/09/25 10:58:23;;;;;;;24.77;12.32;;;19.10;85.80;;;;;;5013300;28;20046;-80
2021/09/25 11:00:56;;;;;;;21.70;15.45;;;19.10;84.90;;;;;;5012743;28;20053;-79
2021/09/25 11:03:43;;;;;;;27.15;17.00;;;19.10;85.90;;;;;;5012742;28;20053;-80
2021/09/25 11:06:49;;;;;;;24.73;17.33;;;19.20;85.90;;;;;;5012627;28;20026;-80
2021/09/25 11:09:16;;;;;;;25.45;16.85;;;19.30;85.80;;;;;;5013274;28;20375;-80
2021/09/25 11:11:54;;;;;;;25.13;15.90;;;19.30;85.70;;;;;;5013135;28;20382;-80
2021/09/25 11:14:23;;;;;;;20.90;14.00;;;19.40;85.20;;;;;;5014610;28;20025;-79
2021/09/25 11:17:10;;;;;;;26.17;17.35;;;19.40;84.60;;;;;;5016423;28;20083;-79
2021/09/25 11:19:41;;;;;;;28.10;15.73;;;19.40;84.40;;;;;;5036603;28;20098;-81
2021/09/25 11:22:18;;;;;;;31.17;18.55;;;19.40;83.90;;;;;;5035714;28;20037;-79
2021/09/25 11:24:56;;;;;;;19.45;14.05;;;19.50;84.10;;;;;;5027650;28;20061;-80
2021/09/25 11:27:27;;;;;;;23.35;17.15;;;19.50;83.70;;;;;;5013870;28;20038;-80
2021/09/25 11:30:00;;;;;;;24.83;16.13;;;19.50;83.90;;;;;;5014369;28;20018;-80
2021/09/25 11:32:31;;;;;;;18.67;12.80;;;19.50;84.20;;;;;;5019108;28;20100;-81
2021/09/25 11:34:58;;;;;;;15.93;9.48;;;19.50;82.60;;;;;;5013217;28;20026;-80
2021/09/25 11:37:25;;;;;;;22.08;15.27;;;19.50;82.10;;;;;;5012683;28;20036;-79
2021/09/25 11:39:53;;;;;;;28.35;16.95;;;19.50;82.00;;;;;;5012559;28;20022;-80
2021/09/25 11:42:25;;;;;;;29.30;19.17;;;19.60;83.60;;;;;;5013043;28;20028;-80
2021/09/25 11:44:50;;;;;;;27.58;20.02;;;19.60;83.50;;;;;;5013184;28;20026;-80
2021/09/25 11:47:49;;;;;;;23.90;13.93;;;19.70;83.80;;;;;;5014529;28;20037;-80
2021/09/25 11:50:19;;;;;;;28.17;17.42;;;19.80;83.10;;;;;;4981115;28;20120;-80
2021/09/25 11:52:50;;;;;;;;;;;19.90;83.00;;;;;;5015857;28;20029;-80
2021/09/25 11:55:16;;;;;;;29.77;19.23;;;20.00;82.60;;;;;;5020078;28;19906;-81
2021/09/25 11:57:47;;;;;;;24.67;15.80;;;20.10;81.40;;;;;;5013659;28;20076;-79
2021/09/25 12:00:27;;;;;;;18.65;13.90;;;20.10;80.90;;;;;;5014912;28;20018;-79
2021/09/25 12:02:55;;;;;;;19.52;13.55;;;20.20;81.40;;;;;;5014627;28;20097;-78
2021/09/25 12:05:54;;;;;;;27.65;18.42;;;20.20;80.50;;;;;;5030868;28;20002;-79
2021/09/25 12:08:27;;;;;;;28.53;16.20;;;20.30;80.50;;;;;;5022019;28;20076;-77
2021/09/25 12:11:04;;;;;;;18.83;13.40;;;20.40;79.50;;;;;;5014453;28;20113;-79
2021/09/25 12:13:36;;;;;;;9.98;4.82;;;20.40;79.10;;;;;;5012825;28;20057;-81
2021/09/25 12:16:16;;;;;;;15.73;11.48;;;20.40;76.30;;;;;;5006283;28;20029;-80
2021/09/25 12:18:45;;;;;;;22.02;14.55;;;20.50;77.80;;;;;;5019887;28;20022;-81
2021/09/25 12:21:13;;;;;;;12.70;8.52;;;20.50;78.30;;;;;;5032482;28;20077;-81
2021/09/25 12:23:51;;;;;;;9.98;6.43;;;20.50;77.50;;;;;;5034186;28;20021;-80
2021/09/25 12:26:29;;;;;;;25.38;14.70;;;20.50;76.80;;;;;;5039762;28;20034;-78
2021/09/25 12:29:12;;;;;;;12.65;7.22;;;20.60;78.00;;;;;;5043681;28;20029;-79
2021/09/25 12:31:39;;;;;;;25.08;15.75;;;20.60;77.10;;;;;;5042110;28;20036;-80
2021/09/25 12:34:16;;;;;;;25.23;16.42;;;20.50;77.10;;;;;;5046978;28;20029;-78